LLOV

Details ICAO LLOV (VDA)
Name OVDA
Region Israel
Timezone Asia/Jerusalem (UTC+2.0)
Plans Departing 16
Arriving 20
Stats Elevation 1,492 ft / 455 m (AMSL)
Location 29.940251° 34.935849°
Runways 2
Magnetic Variation 4.466° E
Sunrise 2017-12-13 04:28:33 UTC / 2017-12-13 06:28:33 Local
Sunset 2017-12-13 14:43:06 UTC / 2017-12-13 16:43:06 Local
Advertisement - Login to hide

Runways

ID Width Length Bearing (true) Bearing (mag) Surface Threshold Offset Overrun Length
02L 148 ft / 45 m 8,514 ft / 2,595 m 21.99° 17.52° Asphalt 492 ft / 150 m 197 ft / 60 m
02R 148 ft / 45 m 9,829 ft / 2,996 m 21.93° 17.46° Asphalt 492 ft / 150 m 557 ft / 170 m
20L 148 ft / 45 m 9,829 ft / 2,996 m 201.94° 197.47° Asphalt 492 ft / 150 m 557 ft / 170 m
20R 148 ft / 45 m 8,514 ft / 2,595 m 202.00° 197.53° Asphalt 492 ft / 150 m 197 ft / 60 m

Map

Weather


0- 5 10 15 20 25 30 35+ Temperature / ° C

Clouds and Precipitation
Forecast for 2017-12-13 00:00 UTC. Updated 34 minutes ago

Ground ~20,000 ft ~40,000 ft Winds

METAR

LLOV 122250Z 23005KT CAVOK 12/M10 Q1020

TAF

TAF TAF LLOV 121859Z 1219/1318 24006KT CAVOK BECMG 1307/1309 01010KT TX18/1312Z TN07/1304Z

Frequencies

Tower 129.90 MHz TWR
Warning: Do not use this data for real-world aviation or navigation. No guarantee of current accuracy is given.